sensor_id;sensor_type;location;lat;lon;timestamp;P1;durP1;ratioP1;P2;durP2;ratioP2
45318;SDS011;31057;48.498;32.260;2023-11-19T00:00:59;10.50;;;5.25;;
45318;SDS011;31057;48.498;32.260;2023-11-19T00:05:03;9.18;;;7.07;;
45318;SDS011;31057;48.498;32.260;2023-11-19T00:07:09;5.20;;;4.00;;
45318;SDS011;31057;48.498;32.260;2023-11-19T00:09:11;4.10;;;3.33;;
45318;SDS011;31057;48.498;32.260;2023-11-19T00:13:17;10.23;;;6.82;;
45318;SDS011;31057;48.498;32.260;2023-11-19T00:17:21;8.75;;;5.93;;
45318;SDS011;31057;48.498;32.260;2023-11-19T00:19:23;4.03;;;3.25;;
45318;SDS011;31057;48.498;32.260;2023-11-19T00:23:30;6.00;;;4.30;;
45318;SDS011;31057;48.498;32.260;2023-11-19T00:25:31;7.03;;;5.15;;
45318;SDS011;31057;48.498;32.260;2023-11-19T00:27:33;9.32;;;6.55;;
45318;SDS011;31057;48.498;32.260;2023-11-19T00:31:37;10.65;;;6.70;;
45318;SDS011;31057;48.498;32.260;2023-11-19T00:33:40;6.35;;;4.78;;
45318;SDS011;31057;48.498;32.260;2023-11-19T00:35:44;7.45;;;5.45;;
45318;SDS011;31057;48.498;32.260;2023-11-19T00:37:47;10.05;;;8.02;;
45318;SDS011;31057;48.498;32.260;2023-11-19T00:39:50;9.80;;;5.43;;
45318;SDS011;31057;48.498;32.260;2023-11-19T00:41:53;9.63;;;5.80;;
45318;SDS011;31057;48.498;32.260;2023-11-19T00:43:55;9.55;;;6.65;;
45318;SDS011;31057;48.498;32.260;2023-11-19T00:45:57;10.95;;;8.50;;
45318;SDS011;31057;48.498;32.260;2023-11-19T00:50:01;14.35;;;8.65;;
45318;SDS011;31057;48.498;32.260;2023-11-19T00:52:04;8.68;;;5.30;;
45318;SDS011;31057;48.498;32.260;2023-11-19T00:54:07;8.85;;;5.13;;
45318;SDS011;31057;48.498;32.260;2023-11-19T00:56:10;14.18;;;9.20;;
45318;SDS011;31057;48.498;32.260;2023-11-19T00:58:13;10.90;;;8.70;;
45318;SDS011;31057;48.498;32.260;2023-11-19T01:02:21;8.65;;;5.05;;
45318;SDS011;31057;48.498;32.260;2023-11-19T01:04:23;6.38;;;5.38;;
45318;SDS011;31057;48.498;32.260;2023-11-19T01:06:26;7.97;;;5.90;;
45318;SDS011;31057;48.498;32.260;2023-11-19T01:08:29;8.63;;;5.93;;
45318;SDS011;31057;48.498;32.260;2023-11-19T01:10:31;13.85;;;8.63;;
45318;SDS011;31057;48.498;32.260;2023-11-19T01:14:35;11.18;;;7.35;;
45318;SDS011;31057;48.498;32.260;2023-11-19T01:16:37;13.27;;;8.98;;
45318;SDS011;31057;48.498;32.260;2023-11-19T01:18:40;10.48;;;7.38;;
45318;SDS011;31057;48.498;32.260;2023-11-19T01:24:46;8.13;;;5.93;;
45318;SDS011;31057;48.498;32.260;2023-11-19T01:26:48;8.30;;;5.07;;
45318;SDS011;31057;48.498;32.260;2023-11-19T01:30:54;7.47;;;4.90;;
45318;SDS011;31057;48.498;32.260;2023-11-19T01:32:56;8.75;;;6.47;;
45318;SDS011;31057;48.498;32.260;2023-11-19T01:37:00;9.25;;;7.07;;
45318;SDS011;31057;48.498;32.260;2023-11-19T01:39:02;8.32;;;5.47;;
45318;SDS011;31057;48.498;32.260;2023-11-19T01:41:05;5.75;;;4.10;;
45318;SDS011;31057;48.498;32.260;2023-11-19T01:43:07;12.43;;;6.90;;
45318;SDS011;31057;48.498;32.260;2023-11-19T01:45:22;9.88;;;7.00;;
45318;SDS011;31057;48.498;32.260;2023-11-19T01:47:30;7.95;;;6.22;;
45318;SDS011;31057;48.498;32.260;2023-11-19T01:49:32;5.50;;;4.75;;
45318;SDS011;31057;48.498;32.260;2023-11-19T01:51:34;11.05;;;8.30;;
45318;SDS011;31057;48.498;32.260;2023-11-19T01:53:37;7.65;;;5.28;;
45318;SDS011;31057;48.498;32.260;2023-11-19T01:55:40;7.43;;;4.90;;
45318;SDS011;31057;48.498;32.260;2023-11-19T01:57:42;10.00;;;7.65;;
45318;SDS011;31057;48.498;32.260;2023-11-19T02:01:46;7.07;;;4.85;;
45318;SDS011;31057;48.498;32.260;2023-11-19T02:04:00;11.23;;;5.75;;
45318;SDS011;31057;48.498;32.260;2023-11-19T02:06:03;4.88;;;3.92;;
45318;SDS011;31057;48.498;32.260;2023-11-19T02:08:06;9.85;;;6.32;;
45318;SDS011;31057;48.498;32.260;2023-11-19T02:10:09;27.77;;;9.15;;
45318;SDS011;31057;48.498;32.260;2023-11-19T02:12:16;11.70;;;7.53;;
45318;SDS011;31057;48.498;32.260;2023-11-19T02:14:18;5.70;;;4.35;;
45318;SDS011;31057;48.498;32.260;2023-11-19T02:16:24;4.40;;;3.28;;
45318;SDS011;31057;48.498;32.260;2023-11-19T02:20:29;6.53;;;4.47;;
45318;SDS011;31057;48.498;32.260;2023-11-19T02:24:33;8.27;;;6.57;;
45318;SDS011;31057;48.498;32.260;2023-11-19T02:26:38;11.38;;;7.00;;
45318;SDS011;31057;48.498;32.260;2023-11-19T02:28:47;9.00;;;7.10;;
45318;SDS011;31057;48.498;32.260;2023-11-19T02:30:49;8.63;;;6.72;;
45318;SDS011;31057;48.498;32.260;2023-11-19T02:32:54;5.40;;;4.40;;
45318;SDS011;31057;48.498;32.260;2023-11-19T02:35:02;11.80;;;6.60;;
45318;SDS011;31057;48.498;32.260;2023-11-19T02:37:07;6.95;;;5.90;;
45318;SDS011;31057;48.498;32.260;2023-11-19T02:39:09;5.35;;;4.70;;
45318;SDS011;31057;48.498;32.260;2023-11-19T02:41:13;6.63;;;5.35;;
45318;SDS011;31057;48.498;32.260;2023-11-19T02:43:15;5.85;;;4.65;;
45318;SDS011;31057;48.498;32.260;2023-11-19T02:47:19;9.43;;;5.80;;
45318;SDS011;31057;48.498;32.260;2023-11-19T02:49:22;8.68;;;5.00;;
45318;SDS011;31057;48.498;32.260;2023-11-19T02:51:25;9.13;;;6.93;;
45318;SDS011;31057;48.498;32.260;2023-11-19T02:53:32;6.70;;;5.35;;
45318;SDS011;31057;48.498;32.260;2023-11-19T02:55:34;8.98;;;5.85;;
45318;SDS011;31057;48.498;32.260;2023-11-19T02:57:39;7.90;;;5.63;;
45318;SDS011;31057;48.498;32.260;2023-11-19T02:59:49;11.45;;;7.75;;
45318;SDS011;31057;48.498;32.260;2023-11-19T03:03:54;9.43;;;6.50;;
45318;SDS011;31057;48.498;32.260;2023-11-19T03:05:58;7.53;;;4.97;;
45318;SDS011;31057;48.498;32.260;2023-11-19T03:08:00;5.97;;;4.32;;
45318;SDS011;31057;48.498;32.260;2023-11-19T03:10:02;9.68;;;6.03;;
45318;SDS011;31057;48.498;32.260;2023-11-19T03:12:07;8.85;;;6.53;;
45318;SDS011;31057;48.498;32.260;2023-11-19T03:14:09;6.65;;;4.68;;
45318;SDS011;31057;48.498;32.260;2023-11-19T03:16:11;5.70;;;4.28;;
45318;SDS011;31057;48.498;32.260;2023-11-19T03:18:13;7.00;;;4.35;;
45318;SDS011;31057;48.498;32.260;2023-11-19T03:20:15;7.03;;;5.47;;
45318;SDS011;31057;48.498;32.260;2023-11-19T03:22:18;8.10;;;5.82;;
45318;SDS011;31057;48.498;32.260;2023-11-19T03:26:22;3.75;;;3.42;;
45318;SDS011;31057;48.498;32.260;2023-11-19T03:28:24;9.20;;;6.10;;
45318;SDS011;31057;48.498;32.260;2023-11-19T03:30:26;6.25;;;5.30;;
45318;SDS011;31057;48.498;32.260;2023-11-19T03:32:32;7.22;;;5.72;;
45318;SDS011;31057;48.498;32.260;2023-11-19T03:34:36;7.75;;;4.90;;
45318;SDS011;31057;48.498;32.260;2023-11-19T03:36:38;11.13;;;6.88;;
45318;SDS011;31057;48.498;32.260;2023-11-19T03:38:41;11.40;;;6.53;;
45318;SDS011;31057;48.498;32.260;2023-11-19T03:40:44;7.47;;;5.78;;
45318;SDS011;31057;48.498;32.260;2023-11-19T03:44:47;7.25;;;6.38;;
45318;SDS011;31057;48.498;32.260;2023-11-19T03:46:51;10.52;;;7.95;;
45318;SDS011;31057;48.498;32.260;2023-11-19T03:48:53;13.13;;;8.95;;
45318;SDS011;31057;48.498;32.260;2023-11-19T03:50:55;8.40;;;5.57;;
45318;SDS011;31057;48.498;32.260;2023-11-19T03:52:57;7.28;;;5.45;;
45318;SDS011;31057;48.498;32.260;2023-11-19T03:57:00;3.83;;;3.50;;
45318;SDS011;31057;48.498;32.260;2023-11-19T03:59:04;6.85;;;4.57;;
45318;SDS011;31057;48.498;32.260;2023-11-19T04:01:10;12.75;;;8.60;;
45318;SDS011;31057;48.498;32.260;2023-11-19T04:03:14;7.93;;;6.00;;
45318;SDS011;31057;48.498;32.260;2023-11-19T04:05:16;7.95;;;6.72;;
45318;SDS011;31057;48.498;32.260;2023-11-19T04:07:20;9.55;;;6.20;;
45318;SDS011;31057;48.498;32.260;2023-11-19T04:09:22;4.88;;;3.92;;
45318;SDS011;31057;48.498;32.260;2023-11-19T04:13:26;4.75;;;4.30;;
45318;SDS011;31057;48.498;32.260;2023-11-19T04:17:30;10.55;;;7.70;;
45318;SDS011;31057;48.498;32.260;2023-11-19T04:21:34;2.85;;;2.65;;
45318;SDS011;31057;48.498;32.260;2023-11-19T04:23:36;9.32;;;7.20;;
45318;SDS011;31057;48.498;32.260;2023-11-19T04:27:40;9.48;;;6.10;;
45318;SDS011;31057;48.498;32.260;2023-11-19T04:29:42;10.18;;;6.68;;
45318;SDS011;31057;48.498;32.260;2023-11-19T04:31:44;8.38;;;5.85;;
45318;SDS011;31057;48.498;32.260;2023-11-19T04:33:47;11.32;;;8.52;;
45318;SDS011;31057;48.498;32.260;2023-11-19T04:35:49;7.95;;;6.60;;
45318;SDS011;31057;48.498;32.260;2023-11-19T04:39:52;13.75;;;9.73;;
45318;SDS011;31057;48.498;32.260;2023-11-19T04:41:55;10.23;;;5.03;;
45318;SDS011;31057;48.498;32.260;2023-11-19T04:43:57;11.45;;;7.82;;
45318;SDS011;31057;48.498;32.260;2023-11-19T04:45:58;9.65;;;6.28;;
45318;SDS011;31057;48.498;32.260;2023-11-19T04:50:02;5.85;;;5.15;;
45318;SDS011;31057;48.498;32.260;2023-11-19T04:52:05;9.18;;;6.88;;
45318;SDS011;31057;48.498;32.260;2023-11-19T04:56:10;11.32;;;7.03;;
45318;SDS011;31057;48.498;32.260;2023-11-19T04:58:13;9.63;;;5.60;;
45318;SDS011;31057;48.498;32.260;2023-11-19T05:02:18;5.18;;;4.05;;
45318;SDS011;31057;48.498;32.260;2023-11-19T05:06:22;9.55;;;6.60;;
45318;SDS011;31057;48.498;32.260;2023-11-19T05:08:24;7.57;;;5.50;;
45318;SDS011;31057;48.498;32.260;2023-11-19T05:12:27;10.40;;;7.40;;
45318;SDS011;31057;48.498;32.260;2023-11-19T05:16:31;10.93;;;6.43;;
45318;SDS011;31057;48.498;32.260;2023-11-19T05:18:34;7.15;;;5.63;;
45318;SDS011;31057;48.498;32.260;2023-11-19T05:20:36;10.73;;;8.23;;
45318;SDS011;31057;48.498;32.260;2023-11-19T05:22:37;6.03;;;4.90;;
45318;SDS011;31057;48.498;32.260;2023-11-19T05:24:43;10.05;;;6.18;;
45318;SDS011;31057;48.498;32.260;2023-11-19T05:26:45;8.93;;;5.85;;
45318;SDS011;31057;48.498;32.260;2023-11-19T05:28:48;12.68;;;9.88;;
45318;SDS011;31057;48.498;32.260;2023-11-19T05:30:51;5.18;;;4.68;;
45318;SDS011;31057;48.498;32.260;2023-11-19T05:32:53;8.70;;;7.80;;
45318;SDS011;31057;48.498;32.260;2023-11-19T05:36:57;15.30;;;7.10;;
45318;SDS011;31057;48.498;32.260;2023-11-19T05:41:00;10.60;;;6.38;;
45318;SDS011;31057;48.498;32.260;2023-11-19T05:45:04;7.75;;;6.25;;
45318;SDS011;31057;48.498;32.260;2023-11-19T05:47:07;6.32;;;5.28;;
45318;SDS011;31057;48.498;32.260;2023-11-19T05:49:09;12.88;;;7.63;;
45318;SDS011;31057;48.498;32.260;2023-11-19T05:51:12;10.82;;;7.70;;
45318;SDS011;31057;48.498;32.260;2023-11-19T05:53:15;10.35;;;6.85;;
45318;SDS011;31057;48.498;32.260;2023-11-19T05:55:17;10.20;;;8.07;;
45318;SDS011;31057;48.498;32.260;2023-11-19T05:57:20;12.48;;;8.80;;
45318;SDS011;31057;48.498;32.260;2023-11-19T05:59:25;7.70;;;4.85;;
45318;SDS011;31057;48.498;32.260;2023-11-19T06:03:30;13.02;;;7.00;;
45318;SDS011;31057;48.498;32.260;2023-11-19T06:07:34;14.15;;;11.10;;
45318;SDS011;31057;48.498;32.260;2023-11-19T06:09:37;9.20;;;8.25;;
45318;SDS011;31057;48.498;32.260;2023-11-19T06:11:39;14.00;;;9.90;;
45318;SDS011;31057;48.498;32.260;2023-11-19T06:15:44;13.55;;;8.80;;
45318;SDS011;31057;48.498;32.260;2023-11-19T06:19:49;14.32;;;9.70;;
45318;SDS011;31057;48.498;32.260;2023-11-19T06:23:52;19.50;;;13.00;;
45318;SDS011;31057;48.498;32.260;2023-11-19T06:25:55;14.00;;;9.63;;
45318;SDS011;31057;48.498;32.260;2023-11-19T06:30:00;10.57;;;6.25;;
45318;SDS011;31057;48.498;32.260;2023-11-19T06:32:02;18.63;;;14.10;;
45318;SDS011;31057;48.498;32.260;2023-11-19T06:34:15;12.13;;;8.68;;
45318;SDS011;31057;48.498;32.260;2023-11-19T06:36:18;13.63;;;9.13;;
45318;SDS011;31057;48.498;32.260;2023-11-19T06:40:22;14.20;;;9.85;;
45318;SDS011;31057;48.498;32.260;2023-11-19T06:44:26;11.73;;;9.85;;
45318;SDS011;31057;48.498;32.260;2023-11-19T06:48:30;14.32;;;10.48;;
45318;SDS011;31057;48.498;32.260;2023-11-19T06:50:33;12.18;;;9.23;;
45318;SDS011;31057;48.498;32.260;2023-11-19T06:54:39;11.80;;;7.47;;
45318;SDS011;31057;48.498;32.260;2023-11-19T06:56:41;13.23;;;10.52;;
45318;SDS011;31057;48.498;32.260;2023-11-19T07:00:45;13.95;;;9.40;;
45318;SDS011;31057;48.498;32.260;2023-11-19T07:02:48;18.95;;;11.50;;
45318;SDS011;31057;48.498;32.260;2023-11-19T07:04:52;13.18;;;9.38;;
45318;SDS011;31057;48.498;32.260;2023-11-19T07:06:56;15.48;;;8.82;;
45318;SDS011;31057;48.498;32.260;2023-11-19T07:08:58;13.85;;;9.85;;
45318;SDS011;31057;48.498;32.260;2023-11-19T07:13:02;12.27;;;8.38;;
45318;SDS011;31057;48.498;32.260;2023-11-19T07:15:05;14.90;;;10.57;;
45318;SDS011;31057;48.498;32.260;2023-11-19T07:17:08;12.05;;;8.63;;
45318;SDS011;31057;48.498;32.260;2023-11-19T07:19:12;13.63;;;10.48;;
45318;SDS011;31057;48.498;32.260;2023-11-19T07:23:16;17.42;;;12.02;;
45318;SDS011;31057;48.498;32.260;2023-11-19T07:25:18;17.42;;;10.95;;
45318;SDS011;31057;48.498;32.260;2023-11-19T07:27:20;11.30;;;9.63;;
45318;SDS011;31057;48.498;32.260;2023-11-19T07:31:27;13.88;;;10.32;;
45318;SDS011;31057;48.498;32.260;2023-11-19T07:33:29;10.10;;;6.20;;
45318;SDS011;31057;48.498;32.260;2023-11-19T07:37:33;10.80;;;8.20;;
45318;SDS011;31057;48.498;32.260;2023-11-19T07:41:39;10.95;;;7.60;;
45318;SDS011;31057;48.498;32.260;2023-11-19T07:43:44;23.13;;;15.68;;
45318;SDS011;31057;48.498;32.260;2023-11-19T07:45:48;10.20;;;7.70;;
45318;SDS011;31057;48.498;32.260;2023-11-19T07:49:52;11.77;;;8.40;;
45318;SDS011;31057;48.498;32.260;2023-11-19T07:53:56;17.10;;;10.07;;
45318;SDS011;31057;48.498;32.260;2023-11-19T07:55:58;11.30;;;7.72;;
45318;SDS011;31057;48.498;32.260;2023-11-19T07:58:03;15.60;;;11.02;;
45318;SDS011;31057;48.498;32.260;2023-11-19T08:02:08;19.67;;;14.02;;
45318;SDS011;31057;48.498;32.260;2023-11-19T08:04:10;11.90;;;8.55;;
45318;SDS011;31057;48.498;32.260;2023-11-19T08:06:13;17.42;;;10.50;;
45318;SDS011;31057;48.498;32.260;2023-11-19T08:08:14;13.95;;;10.43;;
45318;SDS011;31057;48.498;32.260;2023-11-19T08:10:16;16.63;;;11.23;;
45318;SDS011;31057;48.498;32.260;2023-11-19T08:14:20;13.90;;;8.93;;
45318;SDS011;31057;48.498;32.260;2023-11-19T08:16:22;18.10;;;12.55;;
45318;SDS011;31057;48.498;32.260;2023-11-19T08:20:26;22.55;;;12.75;;
45318;SDS011;31057;48.498;32.260;2023-11-19T08:24:30;13.82;;;9.60;;
45318;SDS011;31057;48.498;32.260;2023-11-19T08:26:32;20.70;;;14.60;;
45318;SDS011;31057;48.498;32.260;2023-11-19T08:28:35;14.32;;;11.50;;
45318;SDS011;31057;48.498;32.260;2023-11-19T08:30:38;14.30;;;9.88;;
45318;SDS011;31057;48.498;32.260;2023-11-19T08:32:41;22.67;;;17.10;;
45318;SDS011;31057;48.498;32.260;2023-11-19T08:34:46;12.90;;;9.43;;
45318;SDS011;31057;48.498;32.260;2023-11-19T08:36:51;18.17;;;10.45;;
45318;SDS011;31057;48.498;32.260;2023-11-19T08:38:55;11.93;;;9.60;;
45318;SDS011;31057;48.498;32.260;2023-11-19T08:43:01;20.52;;;12.63;;
45318;SDS011;31057;48.498;32.260;2023-11-19T08:49:08;9.80;;;8.02;;
45318;SDS011;31057;48.498;32.260;2023-11-19T08:51:10;22.00;;;14.23;;
45318;SDS011;31057;48.498;32.260;2023-11-19T08:53:12;10.45;;;8.63;;
45318;SDS011;31057;48.498;32.260;2023-11-19T08:55:14;23.02;;;14.25;;
45318;SDS011;31057;48.498;32.260;2023-11-19T08:57:15;20.38;;;13.73;;
45318;SDS011;31057;48.498;32.260;2023-11-19T09:01:20;15.60;;;11.55;;
45318;SDS011;31057;48.498;32.260;2023-11-19T09:05:24;12.00;;;7.55;;
45318;SDS011;31057;48.498;32.260;2023-11-19T09:09:28;20.95;;;13.43;;
45318;SDS011;31057;48.498;32.260;2023-11-19T09:11:31;14.20;;;9.90;;
45318;SDS011;31057;48.498;32.260;2023-11-19T09:13:33;14.23;;;10.80;;
45318;SDS011;31057;48.498;32.260;2023-11-19T09:15:35;18.83;;;9.32;;
45318;SDS011;31057;48.498;32.260;2023-11-19T09:17:37;20.63;;;15.25;;
45318;SDS011;31057;48.498;32.260;2023-11-19T09:19:40;20.52;;;14.30;;
45318;SDS011;31057;48.498;32.260;2023-11-19T09:23:43;9.38;;;7.15;;
45318;SDS011;31057;48.498;32.260;2023-11-19T09:25:46;15.10;;;8.88;;
45318;SDS011;31057;48.498;32.260;2023-11-19T09:29:51;16.23;;;10.57;;
45318;SDS011;31057;48.498;32.260;2023-11-19T09:31:58;22.45;;;15.05;;
45318;SDS011;31057;48.498;32.260;2023-11-19T09:34:01;16.88;;;11.70;;
45318;SDS011;31057;48.498;32.260;2023-11-19T09:36:03;20.02;;;15.55;;
45318;SDS011;31057;48.498;32.260;2023-11-19T09:38:05;22.83;;;14.52;;
45318;SDS011;31057;48.498;32.260;2023-11-19T09:40:07;13.05;;;9.95;;
45318;SDS011;31057;48.498;32.260;2023-11-19T09:42:12;23.38;;;12.52;;
45318;SDS011;31057;48.498;32.260;2023-11-19T09:46:19;22.35;;;14.85;;
45318;SDS011;31057;48.498;32.260;2023-11-19T09:48:25;22.77;;;14.23;;
45318;SDS011;31057;48.498;32.260;2023-11-19T09:50:28;17.52;;;11.88;;
45318;SDS011;31057;48.498;32.260;2023-11-19T09:52:30;11.68;;;7.43;;
45318;SDS011;31057;48.498;32.260;2023-11-19T09:54:32;34.03;;;17.88;;
45318;SDS011;31057;48.498;32.260;2023-11-19T09:56:35;15.60;;;10.13;;
45318;SDS011;31057;48.498;32.260;2023-11-19T09:58:40;21.92;;;14.95;;
45318;SDS011;31057;48.498;32.260;2023-11-19T10:00:43;16.92;;;11.35;;
45318;SDS011;31057;48.498;32.260;2023-11-19T10:02:53;17.27;;;11.77;;
45318;SDS011;31057;48.498;32.260;2023-11-19T10:04:59;17.63;;;12.65;;
45318;SDS011;31057;48.498;32.260;2023-11-19T10:07:03;14.38;;;9.55;;
45318;SDS011;31057;48.498;32.260;2023-11-19T10:09:05;15.30;;;10.25;;
45318;SDS011;31057;48.498;32.260;2023-11-19T10:11:07;16.00;;;11.07;;
45318;SDS011;31057;48.498;32.260;2023-11-19T10:13:11;20.75;;;14.57;;
45318;SDS011;31057;48.498;32.260;2023-11-19T10:15:23;11.05;;;9.38;;
45318;SDS011;31057;48.498;32.260;2023-11-19T10:17:28;15.82;;;10.25;;
45318;SDS011;31057;48.498;32.260;2023-11-19T10:19:34;20.20;;;10.48;;
45318;SDS011;31057;48.498;32.260;2023-11-19T10:21:36;23.40;;;14.55;;
45318;SDS011;31057;48.498;32.260;2023-11-19T10:23:48;14.35;;;9.45;;
45318;SDS011;31057;48.498;32.260;2023-11-19T10:26:01;15.25;;;10.50;;
45318;SDS011;31057;48.498;32.260;2023-11-19T10:28:06;12.15;;;7.95;;
45318;SDS011;31057;48.498;32.260;2023-11-19T10:30:09;17.48;;;12.20;;
45318;SDS011;31057;48.498;32.260;2023-11-19T10:32:13;20.20;;;14.15;;
45318;SDS011;31057;48.498;32.260;2023-11-19T10:34:27;13.55;;;9.20;;
45318;SDS011;31057;48.498;32.260;2023-11-19T10:36:37;26.10;;;16.75;;
45318;SDS011;31057;48.498;32.260;2023-11-19T10:38:51;11.98;;;8.85;;
45318;SDS011;31057;48.498;32.260;2023-11-19T10:40:57;16.75;;;13.10;;
45318;SDS011;31057;48.498;32.260;2023-11-19T10:43:03;18.20;;;13.65;;
45318;SDS011;31057;48.498;32.260;2023-11-19T10:45:06;20.98;;;12.52;;
45318;SDS011;31057;48.498;32.260;2023-11-19T10:47:25;15.32;;;11.13;;
45318;SDS011;31057;48.498;32.260;2023-11-19T10:49:30;7.32;;;6.13;;
45318;SDS011;31057;48.498;32.260;2023-11-19T10:51:32;22.70;;;14.82;;
45318;SDS011;31057;48.498;32.260;2023-11-19T10:53:36;16.15;;;13.20;;
45318;SDS011;31057;48.498;32.260;2023-11-19T10:55:42;17.88;;;11.05;;
45318;SDS011;31057;48.498;32.260;2023-11-19T10:57:49;20.17;;;15.65;;
45318;SDS011;31057;48.498;32.260;2023-11-19T10:59:52;15.63;;;10.45;;
45318;SDS011;31057;48.498;32.260;2023-11-19T11:02:00;25.77;;;17.48;;
45318;SDS011;31057;48.498;32.260;2023-11-19T11:04:10;20.58;;;15.80;;
45318;SDS011;31057;48.498;32.260;2023-11-19T11:06:16;24.60;;;15.20;;
45318;SDS011;31057;48.498;32.260;2023-11-19T11:20:59;15.32;;;9.88;;
45318;SDS011;31057;48.498;32.260;2023-11-19T11:25:42;26.38;;;16.33;;
45318;SDS011;31057;48.498;32.260;2023-11-19T11:27:55;22.40;;;15.55;;
45318;SDS011;31057;48.498;32.260;2023-11-19T11:36:53;22.10;;;15.35;;
45318;SDS011;31057;48.498;32.260;2023-11-19T11:39:03;20.60;;;14.30;;
45318;SDS011;31057;48.498;32.260;2023-11-19T11:41:16;16.88;;;11.15;;
45318;SDS011;31057;48.498;32.260;2023-11-19T11:43:54;19.40;;;13.13;;
45318;SDS011;31057;48.498;32.260;2023-11-19T11:45:57;20.30;;;13.55;;
45318;SDS011;31057;48.498;32.260;2023-11-19T11:48:12;11.38;;;8.02;;
45318;SDS011;31057;48.498;32.260;2023-11-19T11:50:18;27.10;;;17.77;;
45318;SDS011;31057;48.498;32.260;2023-11-19T11:52:20;23.45;;;16.58;;
45318;SDS011;31057;48.498;32.260;2023-11-19T11:58:34;22.42;;;13.80;;
45318;SDS011;31057;48.498;32.260;2023-11-19T12:00:39;18.48;;;13.98;;
45318;SDS011;31057;48.498;32.260;2023-11-19T12:02:42;15.30;;;10.50;;
45318;SDS011;31057;48.498;32.260;2023-11-19T12:04:47;21.90;;;12.45;;
45318;SDS011;31057;48.498;32.260;2023-11-19T12:07:03;26.90;;;18.42;;
45318;SDS011;31057;48.498;32.260;2023-11-19T12:09:07;15.38;;;11.95;;
45318;SDS011;31057;48.498;32.260;2023-11-19T12:11:09;24.48;;;17.23;;
45318;SDS011;31057;48.498;32.260;2023-11-19T12:13:12;24.13;;;15.75;;
45318;SDS011;31057;48.498;32.260;2023-11-19T12:15:14;13.90;;;10.68;;
45318;SDS011;31057;48.498;32.260;2023-11-19T12:18:02;26.20;;;16.60;;
45318;SDS011;31057;48.498;32.260;2023-11-19T12:19:51;21.17;;;15.35;;
45318;SDS011;31057;48.498;32.260;2023-11-19T12:21:53;18.60;;;13.05;;
45318;SDS011;31057;48.498;32.260;2023-11-19T12:23:55;17.70;;;13.18;;
45318;SDS011;31057;48.498;32.260;2023-11-19T12:26:04;16.13;;;11.20;;
45318;SDS011;31057;48.498;32.260;2023-11-19T12:28:11;22.25;;;14.57;;
45318;SDS011;31057;48.498;32.260;2023-11-19T12:30:32;14.18;;;8.00;;
45318;SDS011;31057;48.498;32.260;2023-11-19T12:32:41;15.15;;;11.02;;
45318;SDS011;31057;48.498;32.260;2023-11-19T12:34:44;19.02;;;12.40;;
45318;SDS011;31057;48.498;32.260;2023-11-19T12:36:46;23.17;;;16.80;;
45318;SDS011;31057;48.498;32.260;2023-11-19T12:38:49;22.00;;;14.93;;
45318;SDS011;31057;48.498;32.260;2023-11-19T12:41:04;25.30;;;16.63;;
45318;SDS011;31057;48.498;32.260;2023-11-19T12:43:08;16.42;;;11.70;;
45318;SDS011;31057;48.498;32.260;2023-11-19T12:45:10;22.17;;;13.25;;
45318;SDS011;31057;48.498;32.260;2023-11-19T12:47:12;23.08;;;13.93;;
45318;SDS011;31057;48.498;32.260;2023-11-19T12:49:14;14.77;;;9.95;;
45318;SDS011;31057;48.498;32.260;2023-11-19T12:53:19;26.10;;;15.13;;
45318;SDS011;31057;48.498;32.260;2023-11-19T12:55:28;17.38;;;11.15;;
45318;SDS011;31057;48.498;32.260;2023-11-19T12:57:38;21.38;;;15.95;;
45318;SDS011;31057;48.498;32.260;2023-11-19T12:59:41;19.15;;;13.25;;
45318;SDS011;31057;48.498;32.260;2023-11-19T13:01:56;21.42;;;14.48;;
45318;SDS011;31057;48.498;32.260;2023-11-19T13:03:59;18.65;;;11.52;;
45318;SDS011;31057;48.498;32.260;2023-11-19T13:08:13;18.58;;;10.77;;
45318;SDS011;31057;48.498;32.260;2023-11-19T13:10:15;25.42;;;15.82;;
45318;SDS011;31057;48.498;32.260;2023-11-19T13:12:20;14.68;;;9.82;;
45318;SDS011;31057;48.498;32.260;2023-11-19T13:16:25;19.38;;;12.73;;
45318;SDS011;31057;48.498;32.260;2023-11-19T13:18:28;22.30;;;14.82;;
45318;SDS011;31057;48.498;32.260;2023-11-19T13:20:45;21.40;;;14.10;;
45318;SDS011;31057;48.498;32.260;2023-11-19T13:24:58;14.93;;;10.00;;
45318;SDS011;31057;48.498;32.260;2023-11-19T13:27:02;25.00;;;16.80;;
45318;SDS011;31057;48.498;32.260;2023-11-19T13:29:05;22.75;;;13.93;;
45318;SDS011;31057;48.498;32.260;2023-11-19T13:31:07;21.45;;;14.25;;
45318;SDS011;31057;48.498;32.260;2023-11-19T13:33:09;20.80;;;11.98;;
45318;SDS011;31057;48.498;32.260;2023-11-19T13:35:14;23.75;;;16.02;;
45318;SDS011;31057;48.498;32.260;2023-11-19T13:37:16;22.30;;;16.55;;
45318;SDS011;31057;48.498;32.260;2023-11-19T13:39:18;21.83;;;14.50;;
45318;SDS011;31057;48.498;32.260;2023-11-19T13:41:27;23.77;;;16.48;;
45318;SDS011;31057;48.498;32.260;2023-11-19T13:43:29;15.85;;;11.20;;
45318;SDS011;31057;48.498;32.260;2023-11-19T13:45:31;24.70;;;17.13;;
45318;SDS011;31057;48.498;32.260;2023-11-19T13:49:35;9.63;;;7.50;;
45318;SDS011;31057;48.498;32.260;2023-11-19T13:51:38;15.65;;;11.23;;
45318;SDS011;31057;48.498;32.260;2023-11-19T13:55:45;22.15;;;15.30;;
45318;SDS011;31057;48.498;32.260;2023-11-19T13:57:48;32.05;;;18.45;;
45318;SDS011;31057;48.498;32.260;2023-11-19T14:01:52;16.52;;;9.63;;
45318;SDS011;31057;48.498;32.260;2023-11-19T14:05:56;26.08;;;14.25;;
45318;SDS011;31057;48.498;32.260;2023-11-19T14:08:00;22.50;;;16.38;;
45318;SDS011;31057;48.498;32.260;2023-11-19T14:10:05;14.75;;;11.25;;
45318;SDS011;31057;48.498;32.260;2023-11-19T14:12:08;25.73;;;13.52;;
45318;SDS011;31057;48.498;32.260;2023-11-19T14:14:10;31.33;;;17.42;;
45318;SDS011;31057;48.498;32.260;2023-11-19T14:16:13;18.73;;;11.52;;
45318;SDS011;31057;48.498;32.260;2023-11-19T14:18:17;24.48;;;11.05;;
45318;SDS011;31057;48.498;32.260;2023-11-19T14:20:19;23.35;;;14.90;;
45318;SDS011;31057;48.498;32.260;2023-11-19T14:22:21;26.60;;;16.80;;
45318;SDS011;31057;48.498;32.260;2023-11-19T14:24:23;23.55;;;16.60;;
45318;SDS011;31057;48.498;32.260;2023-11-19T14:26:27;21.40;;;11.10;;
45318;SDS011;31057;48.498;32.260;2023-11-19T14:30:32;16.83;;;10.95;;
45318;SDS011;31057;48.498;32.260;2023-11-19T14:32:36;20.10;;;11.52;;
45318;SDS011;31057;48.498;32.260;2023-11-19T14:34:38;26.38;;;16.48;;
45318;SDS011;31057;48.498;32.260;2023-11-19T14:36:41;17.70;;;12.27;;
45318;SDS011;31057;48.498;32.260;2023-11-19T14:40:45;19.17;;;13.15;;
45318;SDS011;31057;48.498;32.260;2023-11-19T14:44:49;21.25;;;14.90;;
45318;SDS011;31057;48.498;32.260;2023-11-19T14:46:51;24.08;;;13.98;;
45318;SDS011;31057;48.498;32.260;2023-11-19T14:48:53;19.08;;;12.68;;
45318;SDS011;31057;48.498;32.260;2023-11-19T14:50:55;18.80;;;12.82;;
45318;SDS011;31057;48.498;32.260;2023-11-19T14:52:59;18.02;;;8.75;;
45318;SDS011;31057;48.498;32.260;2023-11-19T14:57:04;26.27;;;16.27;;
45318;SDS011;31057;48.498;32.260;2023-11-19T14:59:08;24.88;;;15.13;;
45318;SDS011;31057;48.498;32.260;2023-11-19T15:03:15;13.40;;;9.32;;
45318;SDS011;31057;48.498;32.260;2023-11-19T15:05:20;12.20;;;7.72;;
45318;SDS011;31057;48.498;32.260;2023-11-19T15:09:24;26.83;;;15.82;;
45318;SDS011;31057;48.498;32.260;2023-11-19T15:11:27;26.35;;;14.85;;